Time;durP1;ratioP1;P1;durP2;ratioP2;P2;SDS_P1;SDS_P2;PMS_P1;PMS_P2;Temp;Humidity;BMP_temperature;BMP_pressure;BME280_temperature;BME280_humidity;BME280_pressure;Samples;Min_cycle;Max_cycle;Signal;HPM_P1;HPM_P2
2023/07/03 00:01:10;;;;;;;17.50;2.85;;;;;;;;;;5042093;28;20260;-59
2023/07/03 00:03:38;;;;;;;19.05;2.53;;;;;;;;;;5026845;28;20424;-59
2023/07/03 00:06:07;;;;;;;14.63;2.70;;;;;;;;;;5016836;28;20151;-59
2023/07/03 00:08:35;;;;;;;19.17;2.45;;;;;;;;;;5038024;28;20880;-59
2023/07/03 00:11:04;;;;;;;14.80;2.37;;;;;;;;;;5035367;28;20415;-59
2023/07/03 00:13:32;;;;;;;18.45;2.90;;;;;;;;;;5031880;28;20398;-60
2023/07/03 00:16:00;;;;;;;18.30;2.63;;;;;;;;;;5040099;28;20461;-59
2023/07/03 00:18:29;;;;;;;16.27;2.42;;;;;;;;;;5037217;28;20082;-59
2023/07/03 00:20:57;;;;;;;19.58;2.60;;;;;;;;;;5048913;28;20511;-60
2023/07/03 00:23:26;;;;;;;20.87;2.87;;;;;;;;;;5024480;28;20028;-59
2023/07/03 00:26:04;;;;;;;25.48;2.70;;;;;;;;;;5035189;28;20537;-60
2023/07/03 00:28:32;;;;;;;15.63;2.42;;;;;;;;;;5033875;28;20045;-59
2023/07/03 00:30:59;;;;;;;21.02;3.72;;;;;;;;;;5030860;28;20487;-56
2023/07/03 00:33:27;;;;;;;18.70;2.72;;;;;;;;;;5024307;28;20033;-59
2023/07/03 00:35:55;;;;;;;15.43;2.67;;;;;;;;;;5044803;28;20115;-60
2023/07/03 00:38:23;;;;;;;17.77;2.80;;;;;;;;;;5017395;28;20037;-59
2023/07/03 00:40:51;;;;;;;16.88;2.50;;;;;;;;;;5027449;28;20040;-59
2023/07/03 00:43:19;;;;;;;20.98;3.08;;;;;;;;;;5029438;28;20495;-60
2023/07/03 00:45:47;;;;;;;18.48;2.67;;;;;;;;;;5012598;28;20384;-60
2023/07/03 00:48:16;;;;;;;20.27;3.47;;;;;;;;;;5030105;28;20152;-60
2023/07/03 00:50:43;;;;;;;17.77;2.83;;;;;;;;;;5035273;28;20483;-60
2023/07/03 00:53:11;;;;;;;17.75;2.50;;;;;;;;;;5044291;28;20043;-60
2023/07/03 00:55:42;;;;;;;17.27;2.97;;;;;;;;;;5021904;28;20739;-60
2023/07/03 00:58:12;;;;;;;21.65;2.55;;;;;;;;;;5045537;28;20137;-61
2023/07/03 01:00:49;;;;;;;13.90;2.03;;;;;;;;;;5029770;28;20052;-60
2023/07/03 01:03:19;;;;;;;14.98;3.15;;;;;;;;;;5035321;28;20033;-59
2023/07/03 01:05:49;;;;;;;17.40;2.85;;;;;;;;;;5035124;28;20040;-60
2023/07/03 01:08:18;;;;;;;14.35;3.20;;;;;;;;;;5035835;28;20049;-60
2023/07/03 01:10:46;;;;;;;13.98;2.78;;;;;;;;;;5031988;28;20538;-60
2023/07/03 01:13:17;;;;;;;17.93;2.67;;;;;;;;;;5031046;28;20040;-61
2023/07/03 01:15:45;;;;;;;15.63;2.28;;;;;;;;;;5038990;28;20047;-61
2023/07/03 01:18:13;;;;;;;13.70;2.58;;;;;;;;;;5034152;28;20772;-60
2023/07/03 01:20:43;;;;;;;15.80;2.92;;;;;;;;;;5034116;28;20041;-60
2023/07/03 01:23:14;;;;;;;17.08;3.28;;;;;;;;;;5020484;28;20036;-61
2023/07/03 01:25:44;;;;;;;13.60;2.03;;;;;;;;;;5042312;28;20324;-60
2023/07/03 01:28:14;;;;;;;16.77;2.70;;;;;;;;;;5031864;28;20123;-61
2023/07/03 01:30:43;;;;;;;19.70;2.53;;;;;;;;;;5029846;28;20333;-61
2023/07/03 01:33:13;;;;;;;12.18;3.05;;;;;;;;;;5027034;28;20527;-61
2023/07/03 01:35:41;;;;;;;12.60;2.90;;;;;;;;;;5038163;28;20503;-60
2023/07/03 01:38:10;;;;;;;16.83;2.43;;;;;;;;;;5024708;28;20040;-60
2023/07/03 01:40:38;;;;;;;16.30;2.28;;;;;;;;;;5031940;28;20048;-61
2023/07/03 01:43:07;;;;;;;15.13;2.60;;;;;;;;;;5034104;28;20045;-61
2023/07/03 01:45:40;;;;;;;15.98;2.25;;;;;;;;;;5036857;28;21193;-61
2023/07/03 01:48:08;;;;;;;17.13;3.25;;;;;;;;;;5029971;28;20384;-60
2023/07/03 01:50:36;;;;;;;14.40;2.40;;;;;;;;;;5032008;28;20497;-60
2023/07/03 01:53:06;;;;;;;16.27;3.33;;;;;;;;;;5043607;28;20048;-60
2023/07/03 01:55:39;;;;;;;13.13;2.70;;;;;;;;;;5028170;28;20045;-61
2023/07/03 01:58:14;;;;;;;21.15;3.08;;;;;;;;;;5038230;28;20545;-60
2023/07/03 02:00:46;;;;;;;12.98;2.15;;;;;;;;;;5033246;28;20283;-61
2023/07/03 02:03:18;;;;;;;13.67;2.40;;;;;;;;;;5028087;28;20041;-60
2023/07/03 02:05:48;;;;;;;16.33;3.17;;;;;;;;;;5011795;28;20479;-60
2023/07/03 02:08:18;;;;;;;20.27;2.80;;;;;;;;;;5027143;28;20063;-60
2023/07/03 02:10:46;;;;;;;19.00;2.95;;;;;;;;;;5037087;28;20048;-60
2023/07/03 02:13:15;;;;;;;13.88;2.17;;;;;;;;;;5038307;28;20120;-60
2023/07/03 02:15:42;;;;;;;15.63;2.53;;;;;;;;;;5029243;28;20392;-59
2023/07/03 02:18:17;;;;;;;23.40;2.65;;;;;;;;;;5032610;28;20067;-59
2023/07/03 02:20:45;;;;;;;12.75;2.28;;;;;;;;;;5018851;28;20578;-59
2023/07/03 02:23:13;;;;;;;21.15;2.50;;;;;;;;;;5044334;28;20024;-60
2023/07/03 02:25:41;;;;;;;16.80;2.67;;;;;;;;;;5036865;28;20037;-60
2023/07/03 02:28:08;;;;;;;16.53;2.53;;;;;;;;;;5039671;28;20067;-61
2023/07/03 02:30:38;;;;;;;11.77;2.22;;;;;;;;;;5028157;28;20120;-60
2023/07/03 02:33:06;;;;;;;17.23;2.50;;;;;;;;;;5028650;28;20036;-60
2023/07/03 02:35:35;;;;;;;17.80;2.15;;;;;;;;;;5040883;28;20053;-60
2023/07/03 02:38:03;;;;;;;11.88;2.40;;;;;;;;;;5023565;28;20752;-60
2023/07/03 02:40:30;;;;;;;16.27;2.43;;;;;;;;;;5042458;28;20548;-60
2023/07/03 02:42:58;;;;;;;14.98;2.28;;;;;;;;;;5005777;28;20041;-60
2023/07/03 02:45:26;;;;;;;12.85;2.22;;;;;;;;;;5017595;28;20801;-60
2023/07/03 02:47:56;;;;;;;12.23;2.58;;;;;;;;;;5024978;28;20044;-60
2023/07/03 02:50:23;;;;;;;15.30;2.40;;;;;;;;;;5037840;28;20048;-60
2023/07/03 02:52:51;;;;;;;15.27;2.27;;;;;;;;;;5027456;28;20038;-60
2023/07/03 02:55:19;;;;;;;16.73;2.47;;;;;;;;;;5023728;28;20732;-60
2023/07/03 02:57:46;;;;;;;15.63;2.20;;;;;;;;;;5040903;28;20043;-60
2023/07/03 03:00:15;;;;;;;16.00;2.40;;;;;;;;;;5031357;28;20067;-61
2023/07/03 03:02:45;;;;;;;14.25;2.63;;;;;;;;;;5034328;28;20098;-60
2023/07/03 03:05:14;;;;;;;14.93;1.97;;;;;;;;;;5032004;28;20032;-61
2023/07/03 03:07:42;;;;;;;17.55;2.88;;;;;;;;;;5037398;28;20102;-59
2023/07/03 03:10:10;;;;;;;17.73;2.47;;;;;;;;;;5029167;28;20044;-60
2023/07/03 03:12:38;;;;;;;14.73;2.17;;;;;;;;;;5042369;28;20051;-60
2023/07/03 03:15:06;;;;;;;17.85;2.88;;;;;;;;;;5026652;28;20052;-60
2023/07/03 03:17:34;;;;;;;10.77;2.00;;;;;;;;;;5020826;28;20040;-60
2023/07/03 03:20:04;;;;;;;15.50;3.03;;;;;;;;;;5042701;28;20041;-60
2023/07/03 03:22:33;;;;;;;14.25;2.53;;;;;;;;;;5033968;28;20542;-60
2023/07/03 03:25:00;;;;;;;13.73;2.05;;;;;;;;;;5002692;28;20053;-60
2023/07/03 03:27:28;;;;;;;16.90;2.50;;;;;;;;;;5032493;28;20040;-60
2023/07/03 03:29:56;;;;;;;12.37;2.23;;;;;;;;;;5031193;28;20052;-60
2023/07/03 03:32:24;;;;;;;13.07;2.67;;;;;;;;;;5031179;28;20124;-60
2023/07/03 03:34:52;;;;;;;13.90;2.75;;;;;;;;;;5019535;28;20546;-60
2023/07/03 03:37:19;;;;;;;11.70;2.30;;;;;;;;;;5047146;28;20045;-60
2023/07/03 03:39:48;;;;;;;22.38;2.63;;;;;;;;;;5012279;28;20041;-61
2023/07/03 03:42:18;;;;;;;12.87;2.50;;;;;;;;;;5009439;28;20037;-60
2023/07/03 03:44:46;;;;;;;16.67;3.08;;;;;;;;;;5025818;28;20033;-61
2023/07/03 03:47:14;;;;;;;18.48;2.88;;;;;;;;;;5046359;28;20044;-61
2023/07/03 03:49:41;;;;;;;12.18;2.42;;;;;;;;;;4997444;28;20064;-61
2023/07/03 03:52:09;;;;;;;12.15;2.00;;;;;;;;;;5030748;28;20047;-61
2023/07/03 03:54:37;;;;;;;12.53;1.93;;;;;;;;;;5034753;28;20053;-60
2023/07/03 03:57:07;;;;;;;15.40;2.22;;;;;;;;;;5008635;28;20049;-61
2023/07/03 03:59:35;;;;;;;13.00;2.15;;;;;;;;;;5031858;28;20144;-61
2023/07/03 04:02:03;;;;;;;18.38;2.10;;;;;;;;;;5025631;28;20048;-61
2023/07/03 04:04:31;;;;;;;22.38;2.75;;;;;;;;;;5029650;28;20526;-60
2023/07/03 04:06:58;;;;;;;20.03;2.67;;;;;;;;;;5019957;28;20052;-60
2023/07/03 04:09:26;;;;;;;12.93;1.88;;;;;;;;;;5020321;28;20040;-60
2023/07/03 04:11:55;;;;;;;10.15;2.05;;;;;;;;;;5043136;28;20036;-60
2023/07/03 04:14:24;;;;;;;12.20;1.85;;;;;;;;;;5017530;28;20041;-61
2023/07/03 04:16:51;;;;;;;11.43;2.70;;;;;;;;;;5024266;28;20047;-61
2023/07/03 04:19:19;;;;;;;15.47;2.40;;;;;;;;;;5034635;28;20047;-61
2023/07/03 04:21:47;;;;;;;14.07;2.38;;;;;;;;;;5056294;28;20139;-61
2023/07/03 04:24:15;;;;;;;16.20;3.05;;;;;;;;;;5022014;28;20049;-61
2023/07/03 04:26:54;;;;;;;14.38;2.30;;;;;;;;;;5038237;28;20041;-60
2023/07/03 04:29:22;;;;;;;16.95;2.10;;;;;;;;;;5033945;28;20098;-60
2023/07/03 04:31:51;;;;;;;11.03;1.80;;;;;;;;;;5042273;28;20141;-60
2023/07/03 04:34:20;;;;;;;10.52;2.13;;;;;;;;;;5028413;28;20048;-55
2023/07/03 04:36:48;;;;;;;12.13;1.90;;;;;;;;;;5036447;28;20052;-60
2023/07/03 04:39:16;;;;;;;12.50;1.55;;;;;;;;;;5026938;28;21120;-59
2023/07/03 04:41:44;;;;;;;9.55;1.30;;;;;;;;;;5030672;28;20044;-59
2023/07/03 04:44:12;;;;;;;9.57;2.00;;;;;;;;;;5018727;28;20044;-61
2023/07/03 04:46:43;;;;;;;8.68;1.38;;;;;;;;;;5035485;28;20045;-59
2023/07/03 04:49:13;;;;;;;8.38;1.60;;;;;;;;;;5033486;28;20095;-60
2023/07/03 04:51:41;;;;;;;8.55;1.40;;;;;;;;;;5010818;28;20041;-60
2023/07/03 04:54:09;;;;;;;9.75;1.17;;;;;;;;;;5037632;28;20048;-61
2023/07/03 04:56:37;;;;;;;10.43;1.33;;;;;;;;;;5036876;28;20047;-61
2023/07/03 04:59:05;;;;;;;7.15;1.23;;;;;;;;;;5039345;28;20047;-61
2023/07/03 05:01:32;;;;;;;8.15;1.17;;;;;;;;;;5030523;28;20080;-60
2023/07/03 05:04:00;;;;;;;12.98;1.20;;;;;;;;;;5028551;28;20087;-59
2023/07/03 05:06:29;;;;;;;9.40;1.33;;;;;;;;;;5027995;28;20044;-59
2023/07/03 05:08:57;;;;;;;6.97;0.90;;;;;;;;;;5053388;28;20486;-59
2023/07/03 05:11:25;;;;;;;6.68;1.00;;;;;;;;;;5031259;28;20048;-59
2023/07/03 05:13:53;;;;;;;7.10;1.20;;;;;;;;;;5044831;28;20135;-60
2023/07/03 05:16:20;;;;;;;12.60;1.45;;;;;;;;;;5027168;28;20037;-57
2023/07/03 05:18:49;;;;;;;8.07;1.30;;;;;;;;;;5030914;28;20403;-60
2023/07/03 05:21:18;;;;;;;6.87;1.10;;;;;;;;;;5030856;28;20439;-60
2023/07/03 05:23:47;;;;;;;10.88;1.63;;;;;;;;;;5030799;28;20217;-59
2023/07/03 05:26:15;;;;;;;13.80;1.63;;;;;;;;;;5037624;28;20040;-59
2023/07/03 05:28:43;;;;;;;7.20;1.20;;;;;;;;;;5029407;28;20917;-59
2023/07/03 05:31:10;;;;;;;13.55;1.92;;;;;;;;;;5036963;28;20131;-59
2023/07/03 05:33:38;;;;;;;7.17;1.60;;;;;;;;;;5028760;28;20044;-59
2023/07/03 05:36:06;;;;;;;10.45;1.55;;;;;;;;;;5031961;28;20047;-60
2023/07/03 05:38:34;;;;;;;11.10;1.52;;;;;;;;;;5040791;28;20044;-59
2023/07/03 05:41:03;;;;;;;10.88;1.67;;;;;;;;;;5034835;28;20987;-59
2023/07/03 05:43:31;;;;;;;8.95;1.23;;;;;;;;;;5043583;28;20052;-59
2023/07/03 05:45:59;;;;;;;8.47;1.10;;;;;;;;;;5037598;28;20037;-59
2023/07/03 05:48:27;;;;;;;9.50;1.58;;;;;;;;;;5031296;28;20505;-60
2023/07/03 05:50:54;;;;;;;12.65;1.90;;;;;;;;;;5041685;28;20049;-61
2023/07/03 05:53:22;;;;;;;8.00;2.00;;;;;;;;;;5022477;28;20112;-60
2023/07/03 05:55:55;;;;;;;11.20;1.65;;;;;;;;;;5042105;28;20036;-60
2023/07/03 05:58:25;;;;;;;13.60;2.13;;;;;;;;;;5024737;28;20041;-60
2023/07/03 06:01:04;;;;;;;9.38;1.45;;;;;;;;;;5029702;28;20489;-60
2023/07/03 06:03:32;;;;;;;9.30;1.40;;;;;;;;;;5030414;28;20044;-60
2023/07/03 06:06:00;;;;;;;13.02;1.35;;;;;;;;;;5038874;28;20053;-59
2023/07/03 06:08:28;;;;;;;11.00;1.80;;;;;;;;;;5024494;28;20957;-60
2023/07/03 06:10:56;;;;;;;9.97;1.43;;;;;;;;;;5048341;28;20136;-60
2023/07/03 06:13:25;;;;;;;8.98;1.35;;;;;;;;;;5030191;28;20040;-60
2023/07/03 06:15:53;;;;;;;9.90;1.67;;;;;;;;;;5049898;28;20055;-60
2023/07/03 06:18:21;;;;;;;7.45;1.38;;;;;;;;;;5024104;28;20051;-59
2023/07/03 06:20:49;;;;;;;7.80;1.48;;;;;;;;;;5027502;28;20048;-60
2023/07/03 06:23:16;;;;;;;11.40;1.60;;;;;;;;;;5023764;28;20049;-60
2023/07/03 06:25:44;;;;;;;8.98;1.20;;;;;;;;;;5034524;28;20037;-61
2023/07/03 06:28:12;;;;;;;6.13;1.40;;;;;;;;;;5046441;28;20375;-60
2023/07/03 06:30:46;;;;;;;9.48;1.27;;;;;;;;;;5037303;28;20033;-60
2023/07/03 06:33:18;;;;;;;7.38;1.08;;;;;;;;;;5021859;28;20040;-60
2023/07/03 06:35:47;;;;;;;7.50;1.40;;;;;;;;;;5039531;28;20095;-61
2023/07/03 06:38:15;;;;;;;10.38;1.20;;;;;;;;;;5028947;28;20137;-60
2023/07/03 06:40:45;;;;;;;9.40;1.13;;;;;;;;;;5042103;28;20114;-60
2023/07/03 06:43:14;;;;;;;9.63;1.27;;;;;;;;;;5032346;28;20053;-60
2023/07/03 06:45:43;;;;;;;9.50;1.30;;;;;;;;;;5025328;28;20036;-60
2023/07/03 06:48:11;;;;;;;9.77;1.10;;;;;;;;;;5040394;28;20041;-60
2023/07/03 06:50:39;;;;;;;6.95;1.52;;;;;;;;;;5024995;28;20491;-60
2023/07/03 06:53:07;;;;;;;10.65;1.20;;;;;;;;;;5031071;28;20051;-60
2023/07/03 06:55:34;;;;;;;8.88;1.50;;;;;;;;;;5047348;28;20047;-60
2023/07/03 06:58:03;;;;;;;7.35;1.20;;;;;;;;;;5032316;28;20084;-62
2023/07/03 07:00:30;;;;;;;7.80;0.80;;;;;;;;;;5032952;28;20036;-60
2023/07/03 07:02:59;;;;;;;7.78;1.25;;;;;;;;;;5033471;28;20577;-60
2023/07/03 07:05:28;;;;;;;9.82;1.30;;;;;;;;;;5038766;28;20072;-60
2023/07/03 07:07:56;;;;;;;10.60;1.40;;;;;;;;;;5037842;28;20528;-61
2023/07/03 07:10:24;;;;;;;7.78;1.27;;;;;;;;;;5033317;28;20063;-60
2023/07/03 07:12:52;;;;;;;8.53;1.10;;;;;;;;;;5045121;28;20041;-61
2023/07/03 07:15:19;;;;;;;7.80;1.15;;;;;;;;;;5031556;28;20044;-60
2023/07/03 07:17:47;;;;;;;9.88;1.48;;;;;;;;;;5035167;28;20047;-60
2023/07/03 07:20:20;;;;;;;10.57;1.17;;;;;;;;;;5025892;28;20098;-60
2023/07/03 07:22:49;;;;;;;11.52;1.63;;;;;;;;;;5022922;28;20156;-61
2023/07/03 07:25:16;;;;;;;11.57;1.20;;;;;;;;;;5021397;28;20044;-62
2023/07/03 07:27:44;;;;;;;8.07;1.50;;;;;;;;;;5026323;28;20036;-61
2023/07/03 07:30:12;;;;;;;7.38;1.50;;;;;;;;;;5021465;28;20049;-61
2023/07/03 07:32:40;;;;;;;10.60;1.65;;;;;;;;;;5038632;28;21437;-61
2023/07/03 07:35:09;;;;;;;10.48;1.88;;;;;;;;;;5031357;28;20098;-61
2023/07/03 07:37:39;;;;;;;9.93;1.70;;;;;;;;;;5029656;28;20119;-61
2023/07/03 07:40:07;;;;;;;8.65;1.55;;;;;;;;;;5029964;28;20044;-61
2023/07/03 07:42:35;;;;;;;11.13;1.70;;;;;;;;;;5027348;28;20070;-60
2023/07/03 07:45:03;;;;;;;8.90;1.77;;;;;;;;;;5035771;28;20505;-60
2023/07/03 07:47:31;;;;;;;7.65;1.15;;;;;;;;;;5043719;28;20037;-60
2023/07/03 07:49:59;;;;;;;10.53;1.93;;;;;;;;;;5036204;28;20041;-59
2023/07/03 07:52:27;;;;;;;11.43;2.08;;;;;;;;;;4679347;28;10000581;-58
2023/07/03 07:54:56;;;;;;;8.35;1.58;;;;;;;;;;5007645;28;20124;-59
2023/07/03 07:57:24;;;;;;;7.72;1.85;;;;;;;;;;5031472;28;20063;-58
2023/07/03 07:59:52;;;;;;;7.55;0.95;;;;;;;;;;5029168;28;20047;-58
2023/07/03 08:02:19;;;;;;;6.97;1.23;;;;;;;;;;5030214;28;20068;-58
2023/07/03 08:04:48;;;;;;;7.05;1.20;;;;;;;;;;5034760;28;20432;-58
2023/07/03 08:07:16;;;;;;;7.80;0.82;;;;;;;;;;5022051;28;20095;-59
2023/07/03 08:09:48;;;;;;;13.10;1.42;;;;;;;;;;5031057;28;20036;-59
2023/07/03 08:12:17;;;;;;;9.57;0.90;;;;;;;;;;5032168;28;20127;-59
2023/07/03 08:14:45;;;;;;;10.60;1.70;;;;;;;;;;4680508;28;10000440;-59
2023/07/03 08:17:13;;;;;;;11.07;1.33;;;;;;;;;;5025250;28;20560;-58
2023/07/03 08:19:40;;;;;;;8.95;1.50;;;;;;;;;;5022436;28;20041;-58
2023/07/03 08:22:08;;;;;;;8.93;1.65;;;;;;;;;;5021630;28;20052;-59
2023/07/03 08:24:36;;;;;;;7.15;1.40;;;;;;;;;;5028477;28;20062;-58
2023/07/03 08:27:08;;;;;;;7.10;1.42;;;;;;;;;;5021533;28;20048;-58
2023/07/03 08:29:37;;;;;;;6.13;1.23;;;;;;;;;;5033493;28;20052;-58
2023/07/03 08:32:06;;;;;;;8.85;1.50;;;;;;;;;;5028846;28;20036;-59
2023/07/03 08:34:34;;;;;;;7.70;1.50;;;;;;;;;;5028975;28;20290;-59
2023/07/03 08:37:03;;;;;;;11.18;2.10;;;;;;;;;;5030191;28;20053;-59
2023/07/03 08:39:33;;;;;;;8.50;1.45;;;;;;;;;;5023991;28;21055;-59
2023/07/03 08:42:02;;;;;;;8.97;1.60;;;;;;;;;;5031989;28;20051;-57
2023/07/03 08:44:30;;;;;;;7.72;1.65;;;;;;;;;;5025110;28;20205;-59
2023/07/03 08:46:59;;;;;;;7.07;1.50;;;;;;;;;;5029181;28;20068;-59
2023/07/03 08:49:38;;;;;;;8.45;1.35;;;;;;;;;;5039154;28;20498;-58
2023/07/03 08:52:07;;;;;;;12.55;2.10;;;;;;;;;;5016156;28;20384;-58
2023/07/03 08:54:36;;;;;;;7.70;1.33;;;;;;;;;;5030115;28;20037;-58
2023/07/03 08:57:06;;;;;;;9.77;1.40;;;;;;;;;;5017127;28;20424;-58
2023/07/03 08:59:34;;;;;;;9.77;1.25;;;;;;;;;;5033533;28;20029;-58
2023/07/03 09:02:06;;;;;;;11.13;1.55;;;;;;;;;;5017183;28;20312;-57
2023/07/03 09:04:39;;;;;;;10.45;1.67;;;;;;;;;;5031977;28;20056;-58
2023/07/03 09:07:10;;;;;;;7.53;1.93;;;;;;;;;;5018760;28;20077;-58
2023/07/03 09:09:42;;;;;;;8.10;1.60;;;;;;;;;;5034729;28;20041;-58
2023/07/03 09:12:14;;;;;;;13.00;2.00;;;;;;;;;;5033318;28;20055;-58
2023/07/03 09:14:44;;;;;;;10.98;1.85;;;;;;;;;;5029632;28;20041;-59
2023/07/03 09:17:13;;;;;;;10.00;1.67;;;;;;;;;;5018467;28;20516;-59
2023/07/03 09:19:44;;;;;;;8.13;2.03;;;;;;;;;;5033676;28;20036;-59
2023/07/03 09:22:19;;;;;;;9.23;1.80;;;;;;;;;;5009434;28;20998;-60
2023/07/03 09:24:48;;;;;;;7.40;1.48;;;;;;;;;;5035609;28;20075;-60
2023/07/03 09:27:19;;;;;;;7.97;1.30;;;;;;;;;;5014458;28;20048;-60
2023/07/03 09:29:50;;;;;;;9.73;1.73;;;;;;;;;;5030188;28;20045;-60
2023/07/03 09:32:24;;;;;;;9.67;2.13;;;;;;;;;;5036217;28;20044;-59
2023/07/03 09:34:59;;;;;;;7.13;1.23;;;;;;;;;;5026304;28;20059;-60
2023/07/03 09:37:31;;;;;;;13.52;2.33;;;;;;;;;;5021871;28;20056;-62
2023/07/03 09:39:59;;;;;;;8.77;1.70;;;;;;;;;;5035228;28;20048;-60
2023/07/03 09:42:28;;;;;;;10.52;1.83;;;;;;;;;;5019210;28;20059;-61
2023/07/03 09:44:55;;;;;;;13.60;2.57;;;;;;;;;;5034727;28;20044;-62
2023/07/03 09:47:28;;;;;;;11.68;2.13;;;;;;;;;;5010988;28;20482;-61
2023/07/03 09:50:02;;;;;;;9.65;1.85;;;;;;;;;;5022697;28;20465;-61
2023/07/03 09:52:30;;;;;;;8.45;1.80;;;;;;;;;;5020168;28;20089;-60
2023/07/03 09:55:02;;;;;;;12.07;2.13;;;;;;;;;;5022691;28;20105;-60
2023/07/03 09:57:29;;;;;;;10.20;2.47;;;;;;;;;;5024895;28;20480;-60
2023/07/03 10:00:10;;;;;;;12.45;1.98;;;;;;;;;;5031242;28;20182;-61
2023/07/03 10:02:40;;;;;;;11.85;1.92;;;;;;;;;;5032057;28;20119;-60
2023/07/03 10:05:13;;;;;;;12.52;3.28;;;;;;;;;;5026842;28;20059;-60
2023/07/03 10:07:45;;;;;;;8.50;1.85;;;;;;;;;;5022997;28;20043;-60
2023/07/03 10:10:14;;;;;;;9.77;1.93;;;;;;;;;;5026429;28;20041;-60
2023/07/03 10:12:49;;;;;;;12.75;2.15;;;;;;;;;;5010939;28;20037;-60
2023/07/03 10:15:24;;;;;;;12.73;2.10;;;;;;;;;;4331437;28;10000562;-60
2023/07/03 10:17:55;;;;;;;12.95;1.80;;;;;;;;;;5017856;28;20047;-60
2023/07/03 10:20:25;;;;;;;11.82;2.03;;;;;;;;;;5003656;28;20052;-59
2023/07/03 10:22:58;;;;;;;10.00;1.60;;;;;;;;;;5030428;28;20129;-60
2023/07/03 10:25:27;;;;;;;10.07;1.87;;;;;;;;;;5006173;28;20043;-59
2023/07/03 10:27:57;;;;;;;10.98;1.90;;;;;;;;;;5028886;28;20055;-60
2023/07/03 10:30:27;;;;;;;9.93;1.60;;;;;;;;;;5028265;28;20111;-59
2023/07/03 10:32:57;;;;;;;6.53;1.60;;;;;;;;;;5034380;28;20041;-60
2023/07/03 10:35:27;;;;;;;9.43;1.90;;;;;;;;;;5036103;28;20048;-60
2023/07/03 10:37:59;;;;;;;9.47;2.10;;;;;;;;;;5030178;28;20045;-60
2023/07/03 10:40:30;;;;;;;9.20;1.50;;;;;;;;;;5040299;28;20094;-60
2023/07/03 10:43:00;;;;;;;8.02;1.90;;;;;;;;;;5033371;28;20037;-60
2023/07/03 10:45:30;;;;;;;9.20;1.63;;;;;;;;;;5052943;28;20059;-60
2023/07/03 10:48:02;;;;;;;8.25;1.73;;;;;;;;;;5035794;28;20079;-60
2023/07/03 10:50:31;;;;;;;9.90;1.47;;;;;;;;;;5029761;28;20037;-61
2023/07/03 10:53:04;;;;;;;7.93;1.52;;;;;;;;;;5043110;28;20110;-61
2023/07/03 10:55:34;;;;;;;10.30;1.83;;;;;;;;;;5043598;28;20055;-61
2023/07/03 10:58:06;;;;;;;8.20;1.98;;;;;;;;;;5032330;28;20242;-61
2023/07/03 11:00:40;;;;;;;6.68;1.55;;;;;;;;;;5008576;28;20108;-60
2023/07/03 11:03:14;;;;;;;8.10;1.93;;;;;;;;;;5035290;28;20083;-61
2023/07/03 11:05:44;;;;;;;9.48;1.60;;;;;;;;;;5030493;28;20947;-61
2023/07/03 11:08:17;;;;;;;8.77;2.35;;;;;;;;;;5037150;28;20393;-61
2023/07/03 11:10:49;;;;;;;7.97;1.40;;;;;;;;;;5029395;28;20045;-60
2023/07/03 11:13:19;;;;;;;6.57;1.58;;;;;;;;;;5026377;28;21110;-60
2023/07/03 11:15:50;;;;;;;10.57;1.57;;;;;;;;;;5020052;28;20506;-61
2023/07/03 11:18:26;;;;;;;10.38;2.38;;;;;;;;;;5040061;28;20036;-61
2023/07/03 11:21:00;;;;;;;6.45;1.77;;;;;;;;;;5031794;28;20047;-61
2023/07/03 11:23:35;;;;;;;8.45;1.90;;;;;;;;;;5025880;28;20041;-60
2023/07/03 11:26:08;;;;;;;11.25;2.28;;;;;;;;;;5019341;28;20049;-60
2023/07/03 11:28:41;;;;;;;8.30;1.90;;;;;;;;;;5035088;28;20041;-60
2023/07/03 11:31:09;;;;;;;11.23;2.35;;;;;;;;;;5026042;28;20032;-60
2023/07/03 11:33:39;;;;;;;8.68;1.92;;;;;;;;;;5036990;28;20037;-59
2023/07/03 11:36:33;;;;;;;8.52;1.92;;;;;;;;;;5029633;28;20052;-59
2023/07/03 11:39:24;;;;;;;11.30;2.30;;;;;;;;;;5035754;28;20160;-59
2023/07/03 11:41:55;;;;;;;6.83;2.20;;;;;;;;;;4340963;28;10000626;-59
2023/07/03 11:44:33;;;;;;;10.65;2.70;;;;;;;;;;5007123;28;20356;-60
2023/07/03 11:47:01;;;;;;;13.60;3.20;;;;;;;;;;5036286;28;20045;-59
2023/07/03 11:49:33;;;;;;;7.20;1.83;;;;;;;;;;5018471;28;20135;-60
2023/07/03 11:52:02;;;;;;;9.95;2.22;;;;;;;;;;5005498;28;20051;-59
2023/07/03 11:54:31;;;;;;;8.10;2.22;;;;;;;;;;5038704;28;20051;-59
2023/07/03 11:57:01;;;;;;;10.23;2.28;;;;;;;;;;5020374;28;20178;-59
2023/07/03 11:59:36;;;;;;;9.40;2.37;;;;;;;;;;5033401;28;20041;-59
2023/07/03 12:02:22;;;;;;;11.00;2.80;;;;;;;;;;5017072;28;20636;-60
2023/07/03 12:04:53;;;;;;;14.90;3.22;;;;;;;;;;5025110;28;20048;-60
2023/07/03 12:07:40;;;;;;;10.73;2.42;;;;;;;;;;5034776;28;20393;-60
2023/07/03 12:10:28;;;;;;;9.75;2.30;;;;;;;;;;5015077;28;20040;-60
2023/07/03 12:13:15;;;;;;;9.03;2.40;;;;;;;;;;5024517;28;20071;-60
2023/07/03 12:15:43;;;;;;;13.50;2.78;;;;;;;;;;5031471;28;20045;-60
2023/07/03 12:18:13;;;;;;;10.88;2.20;;;;;;;;;;5027574;28;20044;-60
2023/07/03 12:20:43;;;;;;;11.35;2.20;;;;;;;;;;5030157;28;20040;-58
2023/07/03 12:23:10;;;;;;;15.82;2.50;;;;;;;;;;5023216;28;20055;-60
2023/07/03 12:25:38;;;;;;;10.30;2.57;;;;;;;;;;5031326;28;20566;-60
2023/07/03 12:28:10;;;;;;;11.38;2.22;;;;;;;;;;5028909;28;20053;-60
2023/07/03 12:30:38;;;;;;;7.38;1.77;;;;;;;;;;5033498;28;20129;-60
2023/07/03 12:33:06;;;;;;;8.57;2.10;;;;;;;;;;5008821;28;20060;-60
2023/07/03 12:35:35;;;;;;;7.60;2.20;;;;;;;;;;4675824;28;10000053;-60
2023/07/03 12:38:07;;;;;;;6.85;1.48;;;;;;;;;;5033221;28;20536;-60
2023/07/03 12:40:41;;;;;;;7.83;1.83;;;;;;;;;;5024390;28;20159;-60
2023/07/03 12:43:10;;;;;;;8.43;1.92;;;;;;;;;;5030074;28;20059;-60
2023/07/03 12:45:38;;;;;;;11.15;2.10;;;;;;;;;;5013962;28;20040;-61
2023/07/03 12:48:08;;;;;;;12.88;2.33;;;;;;;;;;5019653;28;20059;-61
2023/07/03 12:50:45;;;;;;;7.57;1.70;;;;;;;;;;5030929;28;20040;-61
2023/07/03 12:53:15;;;;;;;9.27;1.80;;;;;;;;;;5003228;28;20028;-60
2023/07/03 12:55:48;;;;;;;9.60;2.17;;;;;;;;;;5023260;28;20106;-60
2023/07/03 12:58:18;;;;;;;9.77;1.60;;;;;;;;;;5017017;28;20133;-60
2023/07/03 13:00:46;;;;;;;10.35;2.03;;;;;;;;;;5013371;28;20036;-60
2023/07/03 13:03:15;;;;;;;8.77;1.80;;;;;;;;;;5021167;28;20047;-60
2023/07/03 13:05:45;;;;;;;9.23;2.00;;;;;;;;;;5032639;28;20102;-60
2023/07/03 13:08:15;;;;;;;7.35;1.42;;;;;;;;;;5001399;28;20123;-60
2023/07/03 13:10:56;;;;;;;9.70;1.77;;;;;;;;;;5029540;28;20044;-60
2023/07/03 13:13:26;;;;;;;6.82;1.60;;;;;;;;;;5028213;28;20037;-61
2023/07/03 13:15:54;;;;;;;8.60;1.50;;;;;;;;;;5017179;28;20056;-60
2023/07/03 13:18:23;;;;;;;11.40;1.57;;;;;;;;;;5014487;28;20032;-60
2023/07/03 13:20:56;;;;;;;12.27;2.00;;;;;;;;;;5028053;28;20738;-60
2023/07/03 13:23:29;;;;;;;9.75;1.38;;;;;;;;;;5028266;28;20052;-59
2023/07/03 13:25:57;;;;;;;16.73;2.60;;;;;;;;;;5028779;28;20179;-59
2023/07/03 13:28:26;;;;;;;10.40;2.00;;;;;;;;;;5040498;28;20040;-59
2023/07/03 13:31:06;;;;;;;9.97;2.43;;;;;;;;;;5029707;28;20045;-60
2023/07/03 13:33:35;;;;;;;8.02;2.25;;;;;;;;;;5032539;28;20139;-59
2023/07/03 13:36:18;;;;;;;10.23;1.48;;;;;;;;;;5028653;28;20045;-59
2023/07/03 13:38:58;;;;;;;12.00;1.98;;;;;;;;;;5052474;28;20043;-59
2023/07/03 13:41:26;;;;;;;9.40;2.15;;;;;;;;;;5037466;28;20041;-59
2023/07/03 13:44:01;;;;;;;11.70;1.90;;;;;;;;;;5034189;28;20047;-59
2023/07/03 13:46:29;;;;;;;7.20;1.17;;;;;;;;;;5043250;28;20040;-59
2023/07/03 13:48:57;;;;;;;9.73;2.20;;;;;;;;;;5030355;28;20487;-59
2023/07/03 13:51:24;;;;;;;7.03;1.27;;;;;;;;;;5026339;28;20037;-60
2023/07/03 13:53:53;;;;;;;7.28;1.40;;;;;;;;;;5025612;28;20048;-60
2023/07/03 13:56:37;;;;;;;12.97;1.50;;;;;;;;;;5026812;28;20668;-60
2023/07/03 13:59:06;;;;;;;7.38;1.35;;;;;;;;;;5024236;28;20045;-60
2023/07/03 14:01:34;;;;;;;7.10;1.20;;;;;;;;;;5026508;28;20036;-58
2023/07/03 14:04:02;;;;;;;6.32;1.00;;;;;;;;;;5023696;28;20049;-60
2023/07/03 14:06:31;;;;;;;5.97;1.13;;;;;;;;;;5021635;28;20242;-59
2023/07/03 14:09:00;;;;;;;9.70;1.67;;;;;;;;;;5024254;28;20041;-59
2023/07/03 14:11:28;;;;;;;12.07;1.83;;;;;;;;;;5040820;28;20491;-59
2023/07/03 14:13:56;;;;;;;11.20;1.17;;;;;;;;;;5025895;28;20127;-59
2023/07/03 14:16:24;;;;;;;9.32;1.95;;;;;;;;;;5036127;28;20052;-60
2023/07/03 14:18:53;;;;;;;9.18;1.60;;;;;;;;;;5020162;28;20718;-60
2023/07/03 14:21:22;;;;;;;11.90;1.80;;;;;;;;;;5032335;28;20066;-60
2023/07/03 14:23:50;;;;;;;11.10;1.80;;;;;;;;;;5028654;28;20487;-61
2023/07/03 14:26:20;;;;;;;7.78;1.40;;;;;;;;;;5028240;28;20417;-60
2023/07/03 14:28:49;;;;;;;8.48;1.40;;;;;;;;;;5042051;28;20097;-60
2023/07/03 14:31:18;;;;;;;4.82;1.33;;;;;;;;;;5020334;28;20043;-60
2023/07/03 14:33:46;;;;;;;8.03;1.70;;;;;;;;;;5043222;28;20144;-60
2023/07/03 14:36:14;;;;;;;8.32;1.60;;;;;;;;;;4689604;28;10000429;-60
2023/07/03 14:38:41;;;;;;;5.75;1.33;;;;;;;;;;5049205;28;20617;-56
2023/07/03 14:41:10;;;;;;;9.33;1.87;;;;;;;;;;5031295;28;20043;-60
2023/07/03 14:43:39;;;;;;;6.85;1.38;;;;;;;;;;5043608;28;20079;-59
2023/07/03 14:46:07;;;;;;;8.05;1.20;;;;;;;;;;5026294;28;20041;-60
2023/07/03 14:48:35;;;;;;;6.75;1.10;;;;;;;;;;5041001;28;20032;-60
2023/07/03 14:51:03;;;;;;;9.43;1.42;;;;;;;;;;5041164;28;20186;-59